Labelle, Florida
Current Conditions -  °F | °C
As of 11:55 AM on Friday 24 Oct 2014 (Local Time) from KIMM Reporting Station
Clear Clear  
Wind Chill: 82°   Ceiling: Unl
Heat Index: 85°   Visibility: 8mi
Dew Point: 68°   Wind: 17mph
Humidity: 62%   Direction: 50°NE
Pressure: 29.95"   Gusts: 25mph
Location:  26.7507°N, 81.4305°W
Report Text: KIMM 241555Z AUTO 05015G22KT 8SM CLR 28/20 A2995 RMK A01 P000
Loading
Personal Weather Stations






























Interactive Weather Map
Tropical Storm Tracking
New forecast layout! Learn more

10-Day Weather Forecast

Advertisements
Track Severe Weather on mobile